createdAt,value
2019-01-24T00:00:36.056Z,67.90
2019-01-24T00:01:36.042Z,63.20
2019-01-24T00:02:36.028Z,61.70
2019-01-24T00:03:36.045Z,61.10
2019-01-24T00:04:36.018Z,61.70
2019-01-24T00:05:36.019Z,63.90
2019-01-24T00:06:35.984Z,58.60
2019-01-24T00:07:35.978Z,62.80
2019-01-24T00:08:35.980Z,64.20
2019-01-24T00:09:35.962Z,61.40
2019-01-24T00:10:35.945Z,59.10
2019-01-24T00:11:35.946Z,63.40
2019-01-24T00:12:35.924Z,65.80
2019-01-24T00:13:35.914Z,62.80
2019-01-24T00:14:35.900Z,62.30
2019-01-24T00:15:35.930Z,58.20
2019-01-24T00:16:35.897Z,63.40
2019-01-24T00:17:35.869Z,66.50
2019-01-24T00:18:35.859Z,60.80
2019-01-24T00:19:35.855Z,57.80
2019-01-24T00:20:35.842Z,62.20
2019-01-24T00:21:35.836Z,63.70
2019-01-24T00:22:35.817Z,65.20
2019-01-24T00:23:35.811Z,61.40
2019-01-24T00:24:35.794Z,66.80
2019-01-24T00:25:35.780Z,62.70
2019-01-24T00:26:35.781Z,61.90
2019-01-24T00:27:35.759Z,65.60
2019-01-24T00:28:35.771Z,61.80
2019-01-24T00:29:35.738Z,66.10
2019-01-24T00:30:35.733Z,62.70
2019-01-24T00:31:35.744Z,62.40
2019-01-24T00:32:35.740Z,63.70
2019-01-24T00:33:35.708Z,63.70
2019-01-24T00:34:35.699Z,63.50
2019-01-24T00:35:35.708Z,60.40
2019-01-24T00:36:35.660Z,62.80
2019-01-24T00:37:35.657Z,66.10
2019-01-24T00:38:35.649Z,64.90
2019-01-24T00:40:55.393Z,57.70
2019-01-24T00:41:55.371Z,64.00
2019-01-24T00:42:55.371Z,66.30
2019-01-24T00:43:55.385Z,64.20
2019-01-24T00:44:55.343Z,64.80
2019-01-24T00:45:55.331Z,61.00
2019-01-24T00:46:55.384Z,70.00
2019-01-24T00:47:55.311Z,63.90
2019-01-24T00:48:55.301Z,67.50
2019-01-24T00:49:55.289Z,64.70
2019-01-24T00:50:55.293Z,63.00
2019-01-24T00:51:55.268Z,61.10
2019-01-24T00:52:55.281Z,63.50
2019-01-24T00:53:55.259Z,64.70
2019-01-24T00:54:55.235Z,64.70
2019-01-24T00:55:55.250Z,62.00
2019-01-24T00:56:55.214Z,64.20
2019-01-24T00:57:55.203Z,65.00
2019-01-24T00:58:55.209Z,65.90
2019-01-24T00:59:55.180Z,62.60
2019-01-24T01:00:55.170Z,66.40
2019-01-24T01:01:55.164Z,64.20
2019-01-24T01:02:55.186Z,63.40
2019-01-24T01:03:55.138Z,66.50
2019-01-24T01:04:55.155Z,65.20
2019-01-24T01:05:55.120Z,66.90
2019-01-24T01:06:55.121Z,66.40
2019-01-24T01:07:55.107Z,64.90
2019-01-24T01:08:55.113Z,65.80
2019-01-24T01:09:55.074Z,68.90
2019-01-24T01:10:55.076Z,62.50
2019-01-24T01:11:55.055Z,65.10
2019-01-24T01:12:55.041Z,60.70
2019-01-24T01:13:55.037Z,63.60
2019-01-24T01:14:55.021Z,65.10
2019-01-24T01:15:55.038Z,65.90
2019-01-24T01:16:55.021Z,65.50
2019-01-24T01:17:54.986Z,62.10
2019-01-24T01:18:54.986Z,65.30
2019-01-24T01:19:54.969Z,65.40
2019-01-24T01:20:54.958Z,66.30
2019-01-24T01:21:54.947Z,66.60
2019-01-24T01:22:54.972Z,67.80
2019-01-24T01:23:54.926Z,66.70
2019-01-24T01:24:54.913Z,66.40
2019-01-24T01:25:54.905Z,65.30
2019-01-24T01:26:54.895Z,65.10
2019-01-24T01:27:54.902Z,65.40
2019-01-24T01:28:54.869Z,66.30
2019-01-24T01:29:54.855Z,67.20
2019-01-24T01:30:54.893Z,69.10
2019-01-24T01:31:54.845Z,67.10
2019-01-24T01:32:54.828Z,70.20
2019-01-24T01:33:54.832Z,64.30
2019-01-24T01:34:54.813Z,65.20
2019-01-24T01:35:54.796Z,64.30
2019-01-24T01:36:54.807Z,63.80
2019-01-24T01:37:54.774Z,67.30
2019-01-24T01:38:54.763Z,64.20
2019-01-24T01:39:54.801Z,67.10
2019-01-24T01:40:54.742Z,69.90
2019-01-24T01:41:54.726Z,64.10
2019-01-24T01:42:54.718Z,69.50
2019-01-24T01:43:54.705Z,63.40
2019-01-24T01:44:54.720Z,66.20
2019-01-24T01:45:54.697Z,68.40
2019-01-24T01:46:54.673Z,67.10
2019-01-24T01:47:54.666Z,69.80
2019-01-24T01:48:54.652Z,68.40
2019-01-24T01:49:54.641Z,65.90
2019-01-24T01:50:54.666Z,66.50
2019-01-24T01:51:54.623Z,64.60
2019-01-24T01:52:54.612Z,67.90
2019-01-24T01:53:54.597Z,71.50
2019-01-24T01:54:54.588Z,70.40
2019-01-24T01:55:54.582Z,70.00
2019-01-24T01:56:54.601Z,69.40
2019-01-24T01:57:54.557Z,70.40
2019-01-24T01:58:54.545Z,68.60
2019-01-24T01:59:54.535Z,68.00
2019-01-24T02:00:54.523Z,70.00
2019-01-24T02:01:54.513Z,66.90
2019-01-24T02:02:54.525Z,67.20
2019-01-24T02:03:54.496Z,68.60
2019-01-24T02:04:54.485Z,66.40
2019-01-24T02:05:54.469Z,65.80
2019-01-24T02:06:54.465Z,65.90
2019-01-24T02:07:54.466Z,71.50
2019-01-24T02:08:54.437Z,71.00
2019-01-24T02:09:54.437Z,68.30
2019-01-24T02:10:54.419Z,68.00
2019-01-24T02:11:54.407Z,65.90
2019-01-24T02:12:54.413Z,71.20
2019-01-24T02:13:54.393Z,69.20
2019-01-24T02:14:54.372Z,68.70
2019-01-24T02:15:54.384Z,67.10
2019-01-24T02:16:54.356Z,72.00
2019-01-24T02:17:54.344Z,71.90
2019-01-24T02:18:54.346Z,69.90
2019-01-24T02:19:54.320Z,72.30
2019-01-24T02:20:54.312Z,67.20
2019-01-24T02:21:54.312Z,71.00
2019-01-24T02:22:54.289Z,67.30
2019-01-24T02:23:54.292Z,71.90
2019-01-24T02:24:54.288Z,75.50
2019-01-24T02:25:54.262Z,71.20
2019-01-24T02:26:54.244Z,74.50
2019-01-24T02:27:54.240Z,68.40
2019-01-24T02:28:54.224Z,73.80
2019-01-24T02:29:54.215Z,73.60
2019-01-24T02:30:54.230Z,69.90
2019-01-24T02:31:54.193Z,72.80
2019-01-24T02:32:54.183Z,68.30
2019-01-24T02:33:54.185Z,71.40
2019-01-24T02:34:54.183Z,70.80
2019-01-24T02:35:54.152Z,72.10
2019-01-24T02:36:54.160Z,72.90
2019-01-24T02:37:54.127Z,73.10
2019-01-24T02:38:54.117Z,73.60
2019-01-24T02:39:54.111Z,73.00
2019-01-24T02:40:54.117Z,71.20
2019-01-24T02:41:54.086Z,72.80
2019-01-24T02:42:54.088Z,77.80
2019-01-24T02:43:54.071Z,68.70
2019-01-24T02:44:54.056Z,75.00
2019-01-24T02:45:54.041Z,76.70
2019-01-24T02:46:54.078Z,76.10
2019-01-24T02:47:54.032Z,72.90
2019-01-24T02:48:54.022Z,73.00
2019-01-24T02:49:54.005Z,72.00
2019-01-24T02:50:53.999Z,80.70
2019-01-24T02:51:53.978Z,76.60
2019-01-24T02:52:53.977Z,77.40
2019-01-24T02:53:53.974Z,77.30
2019-01-24T02:54:53.966Z,79.90
2019-01-24T02:55:53.936Z,73.40
2019-01-24T02:56:53.937Z,82.20
2019-01-24T02:57:53.917Z,81.00
2019-01-24T02:58:53.919Z,76.70
2019-01-24T02:59:53.895Z,80.90
2019-01-24T03:00:53.901Z,81.20
2019-01-24T03:01:53.874Z,79.30
2019-01-24T03:02:53.908Z,78.40
2019-01-24T03:03:53.853Z,76.90
2019-01-24T03:04:57.053Z,78.00
2019-01-24T03:05:53.830Z,83.50
2019-01-24T03:06:53.821Z,78.80
2019-01-24T03:07:53.895Z,86.40
2019-01-24T03:08:53.821Z,83.50
2019-01-24T03:09:53.796Z,79.40
2019-01-24T03:10:53.799Z,78.20
2019-01-24T03:11:53.769Z,80.00
2019-01-24T03:12:53.758Z,80.30
2019-01-24T03:13:53.747Z,74.90
2019-01-24T03:14:53.746Z,79.90
2019-01-24T03:15:53.726Z,85.40
2019-01-24T03:16:53.754Z,79.00
2019-01-24T03:17:53.705Z,81.90
2019-01-24T03:18:53.697Z,81.40
2019-01-24T03:19:53.703Z,82.50
2019-01-24T03:20:53.672Z,80.10
2019-01-24T03:21:53.662Z,82.40
2019-01-24T03:22:53.656Z,80.70
2019-01-24T03:23:53.649Z,84.30
2019-01-24T03:24:53.636Z,82.50
2019-01-24T03:25:53.633Z,86.80
2019-01-24T03:26:53.612Z,80.90
2019-01-24T03:27:53.600Z,79.30
2019-01-24T03:28:53.586Z,78.90
2019-01-24T03:29:53.603Z,82.70
2019-01-24T03:30:53.572Z,86.40
2019-01-24T03:31:53.566Z,84.80
2019-01-24T03:32:53.544Z,79.80
2019-01-24T03:33:53.549Z,84.20
2019-01-24T03:34:53.522Z,82.30
2019-01-24T03:35:53.512Z,78.30
2019-01-24T03:36:53.522Z,81.60
2019-01-24T03:37:53.494Z,84.10
2019-01-24T03:38:53.479Z,83.10
2019-01-24T03:39:53.481Z,82.70
2019-01-24T03:40:53.480Z,81.30
2019-01-24T03:41:53.449Z,87.00
2019-01-24T03:42:53.462Z,80.80
2019-01-24T03:43:53.431Z,85.10
2019-01-24T03:44:53.421Z,76.40
2019-01-24T03:45:53.414Z,77.60
2019-01-24T03:46:53.412Z,82.50
2019-01-24T03:47:53.387Z,84.00
2019-01-24T03:48:53.382Z,79.80
2019-01-24T03:49:53.366Z,81.40
2019-01-24T03:50:53.353Z,78.40
2019-01-24T03:51:53.344Z,86.10
2019-01-24T03:52:53.348Z,81.60
2019-01-24T03:53:53.321Z,79.50
2019-01-24T03:54:53.360Z,77.30
2019-01-24T03:55:53.300Z,78.40
2019-01-24T03:56:53.291Z,81.90
2019-01-24T03:57:53.280Z,80.80
2019-01-24T03:58:53.289Z,83.00
2019-01-24T03:59:53.257Z,84.50
2019-01-24T04:00:53.267Z,85.60
2019-01-24T04:01:53.264Z,79.60
2019-01-24T04:02:53.226Z,82.70
2019-01-24T04:03:53.221Z,81.80
2019-01-24T04:04:53.206Z,85.40
2019-01-24T04:05:53.194Z,79.90
2019-01-24T04:06:53.231Z,86.80
2019-01-24T04:07:53.187Z,87.60
2019-01-24T04:08:53.163Z,83.70
2019-01-24T04:09:53.152Z,79.80
2019-01-24T04:10:53.163Z,84.70
2019-01-24T04:11:53.134Z,86.60
2019-01-24T04:12:53.147Z,82.40
2019-01-24T04:13:53.113Z,82.40
2019-01-24T04:14:53.098Z,86.60
2019-01-24T04:15:53.089Z,79.50
2019-01-24T04:16:53.093Z,85.30
2019-01-24T04:17:53.069Z,83.40
2019-01-24T04:18:53.074Z,87.00
2019-01-24T04:19:53.045Z,87.70
2019-01-24T04:20:53.040Z,88.80
2019-01-24T04:21:53.035Z,83.00
2019-01-24T04:22:53.037Z,84.60
2019-01-24T04:23:53.005Z,88.20
2019-01-24T04:24:53.003Z,86.40
2019-01-24T04:25:52.985Z,84.70
2019-01-24T04:26:52.974Z,93.50
2019-01-24T04:27:52.961Z,82.80
2019-01-24T04:28:52.967Z,83.80
2019-01-24T04:29:52.946Z,83.60
2019-01-24T04:30:52.942Z,85.50
2019-01-24T04:31:52.922Z,87.80
2019-01-24T04:32:52.944Z,84.30
2019-01-24T04:33:52.898Z,83.20
2019-01-24T04:34:52.899Z,85.70
2019-01-24T04:35:52.874Z,87.70
2019-01-24T04:36:52.882Z,84.60
2019-01-24T04:37:52.864Z,87.70
2019-01-24T04:38:52.849Z,84.60
2019-01-24T04:39:52.837Z,82.30
2019-01-24T04:40:52.836Z,89.00
2019-01-24T04:41:52.812Z,90.00
2019-01-24T04:42:52.857Z,87.50
2019-01-24T04:43:52.790Z,85.70
2019-01-24T04:44:52.784Z,92.80
2019-01-24T04:45:52.778Z,89.30
2019-01-24T04:46:52.765Z,95.30
2019-01-24T04:47:52.749Z,88.70
2019-01-24T04:48:52.754Z,92.20
2019-01-24T04:49:52.730Z,86.90
2019-01-24T04:50:52.716Z,91.30
2019-01-24T04:51:52.706Z,86.60
2019-01-24T04:52:52.701Z,87.60
2019-01-24T04:53:52.687Z,88.70
2019-01-24T04:54:52.707Z,82.10
2019-01-24T04:55:52.664Z,87.40
2019-01-24T04:56:52.656Z,87.40
2019-01-24T04:57:52.641Z,90.80
2019-01-24T04:58:52.632Z,87.50
2019-01-24T04:59:52.622Z,89.00
2019-01-24T05:00:52.660Z,89.40
2019-01-24T05:01:52.599Z,85.40
2019-01-24T05:02:52.588Z,88.00
2019-01-24T05:03:52.577Z,85.70
2019-01-24T05:04:52.568Z,85.90
2019-01-24T05:05:52.569Z,93.90
2019-01-24T05:06:52.556Z,88.40
2019-01-24T05:07:52.538Z,85.70
2019-01-24T05:08:52.523Z,89.10
2019-01-24T05:09:52.515Z,85.50
2019-01-24T05:10:52.526Z,84.40
2019-01-24T05:11:52.493Z,88.70
2019-01-24T05:12:52.495Z,87.60
2019-01-24T05:13:52.488Z,87.60
2019-01-24T05:14:52.462Z,85.80
2019-01-24T05:15:52.453Z,85.80
2019-01-24T05:16:52.458Z,89.60
2019-01-24T05:17:52.437Z,84.10
2019-01-24T05:18:52.424Z,90.80
2019-01-24T05:19:52.414Z,85.60
2019-01-24T05:20:52.423Z,85.60
2019-01-24T05:21:52.389Z,86.30
2019-01-24T05:22:52.396Z,85.30
2019-01-24T05:23:52.367Z,84.30
2019-01-24T05:24:52.356Z,92.70
2019-01-24T05:25:52.345Z,88.80
2019-01-24T05:26:52.365Z,93.10
2019-01-24T05:27:52.381Z,88.90
2019-01-24T05:28:52.313Z,83.60
2019-01-24T05:29:52.305Z,84.50
2019-01-24T05:30:52.297Z,86.80
2019-01-24T05:31:52.282Z,91.40
2019-01-24T05:32:52.271Z,89.40
2019-01-24T05:33:52.277Z,84.00
2019-01-24T05:34:52.253Z,87.80
2019-01-24T05:35:52.245Z,85.40
2019-01-24T05:36:52.247Z,89.40
2019-01-24T05:37:52.226Z,87.30
2019-01-24T05:38:52.214Z,86.40
2019-01-24T05:39:52.235Z,88.10
2019-01-24T05:40:52.207Z,84.10
2019-01-24T05:41:52.208Z,84.40
2019-01-24T05:42:52.186Z,90.90
2019-01-24T05:43:53.583Z,88.30
2019-01-24T05:44:52.153Z,90.30
2019-01-24T05:45:52.155Z,87.90
2019-01-24T05:46:52.142Z,89.60
2019-01-24T05:47:52.133Z,94.20
2019-01-24T05:48:52.124Z,88.20
2019-01-24T05:49:52.150Z,90.80
2019-01-24T05:50:52.098Z,88.80
2019-01-24T05:51:52.103Z,86.10
2019-01-24T05:52:52.061Z,88.30
2019-01-24T05:53:52.085Z,89.40
2019-01-24T05:54:52.041Z,91.40
2019-01-24T05:55:52.030Z,92.10
2019-01-24T05:56:52.034Z,86.00
2019-01-24T05:57:52.042Z,88.00
2019-01-24T05:58:52.001Z,88.30
2019-01-24T05:59:51.987Z,90.20
2019-01-24T06:00:51.986Z,90.30
2019-01-24T06:01:52.000Z,90.40
2019-01-24T06:02:51.953Z,85.70
2019-01-24T06:03:51.944Z,87.00
2019-01-24T06:04:51.935Z,90.50
2019-01-24T06:05:51.933Z,87.60
2019-01-24T06:06:51.917Z,86.70
2019-01-24T06:07:51.922Z,87.30
2019-01-24T06:08:51.907Z,86.40
2019-01-24T06:09:51.882Z,89.20
2019-01-24T06:10:51.870Z,91.40
2019-01-24T06:11:51.862Z,91.00
2019-01-24T06:12:51.851Z,90.00
2019-01-24T06:13:51.864Z,90.90
2019-01-24T06:14:51.849Z,89.70
2019-01-24T06:15:51.816Z,90.40
2019-01-24T06:16:51.806Z,86.00
2019-01-24T06:17:51.808Z,86.20
2019-01-24T06:18:51.786Z,92.80
2019-01-24T06:19:51.790Z,85.90
2019-01-24T06:20:51.767Z,92.60
2019-01-24T06:21:51.754Z,91.60
2019-01-24T06:22:51.741Z,85.40
2019-01-24T06:23:51.750Z,87.60
2019-01-24T06:24:51.722Z,90.70
2019-01-24T06:25:51.712Z,90.60
2019-01-24T06:26:51.726Z,89.50
2019-01-24T06:27:51.721Z,90.10
2019-01-24T06:28:51.713Z,91.20
2019-01-24T06:29:51.673Z,90.40
2019-01-24T06:30:51.657Z,91.20
2019-01-24T06:31:51.645Z,85.00
2019-01-24T06:32:51.633Z,97.00
2019-01-24T06:33:51.645Z,98.20
2019-01-24T06:34:51.619Z,87.00
2019-01-24T06:35:51.609Z,88.80
2019-01-24T06:36:51.592Z,88.20
2019-01-24T06:37:51.621Z,89.00
2019-01-24T06:38:51.584Z,89.60
2019-01-24T06:39:51.601Z,86.40
2019-01-24T06:40:59.136Z,87.90
2019-01-24T06:41:51.543Z,90.90
2019-01-24T06:42:51.576Z,91.60
2019-01-24T06:43:51.518Z,92.10
2019-01-24T06:44:51.511Z,90.10
2019-01-24T06:45:51.520Z,85.90
2019-01-24T06:46:51.497Z,96.60
2019-01-24T06:47:51.487Z,87.70
2019-01-24T06:48:51.486Z,89.30
2019-01-24T06:49:51.456Z,89.10
2019-01-24T06:50:51.471Z,89.10
2019-01-24T06:51:51.456Z,92.60
2019-01-24T06:52:51.440Z,94.50
2019-01-24T06:53:51.412Z,90.40
2019-01-24T06:54:51.404Z,93.90
2019-01-24T06:55:51.396Z,87.80
2019-01-24T06:56:51.408Z,87.20
2019-01-24T06:57:51.368Z,85.20
2019-01-24T06:58:51.360Z,89.90
2019-01-24T06:59:51.357Z,87.40
2019-01-24T07:00:51.353Z,89.40
2019-01-24T07:01:51.326Z,83.30
2019-01-24T07:02:51.359Z,87.10
2019-01-24T07:03:51.323Z,89.10
2019-01-24T07:04:51.293Z,82.30
2019-01-24T07:05:55.350Z,79.90
2019-01-24T07:06:51.273Z,77.00
2019-01-24T07:07:51.278Z,84.10
2019-01-24T07:08:51.284Z,88.00
2019-01-24T07:09:51.249Z,81.60
2019-01-24T07:10:51.243Z,81.20
2019-01-24T07:11:51.233Z,87.70
2019-01-24T07:12:51.210Z,86.40
2019-01-24T07:13:51.196Z,88.10
2019-01-24T07:14:51.203Z,81.80
2019-01-24T07:15:51.203Z,85.70
2019-01-24T07:16:51.167Z,86.80
2019-01-24T07:17:51.206Z,82.30
2019-01-24T07:18:51.144Z,90.90
2019-01-24T07:19:51.162Z,86.30
2019-01-24T07:20:51.124Z,83.10
2019-01-24T07:21:51.156Z,89.50
2019-01-24T07:22:51.154Z,83.50
2019-01-24T07:23:51.108Z,81.30
2019-01-24T07:24:51.082Z,88.30
2019-01-24T07:25:51.080Z,87.10
2019-01-24T07:26:51.085Z,85.70
2019-01-24T07:27:51.094Z,91.20
2019-01-24T07:28:51.037Z,85.50
2019-01-24T07:29:51.034Z,81.70
2019-01-24T07:30:51.021Z,87.10
2019-01-24T07:31:51.035Z,86.20
2019-01-24T07:32:51.006Z,89.20
2019-01-24T07:33:51.008Z,83.40
2019-01-24T07:34:51.027Z,85.40
2019-01-24T07:35:50.962Z,87.30
2019-01-24T07:36:50.961Z,81.70
2019-01-24T07:37:50.953Z,81.00
2019-01-24T07:38:50.957Z,87.90
2019-01-24T07:39:50.992Z,85.40
2019-01-24T07:40:50.911Z,84.10
2019-01-24T07:41:50.897Z,84.60
2019-01-24T07:42:50.914Z,79.70
2019-01-24T07:43:50.884Z,84.30
2019-01-24T07:44:50.866Z,88.80
2019-01-24T07:45:50.901Z,82.20
2019-01-24T07:46:50.846Z,86.00
2019-01-24T07:47:50.859Z,85.90
2019-01-24T07:48:50.827Z,83.50
2019-01-24T07:49:50.813Z,87.90
2019-01-24T07:50:50.805Z,80.40
2019-01-24T07:51:50.815Z,90.60
2019-01-24T07:52:50.782Z,84.70
2019-01-24T07:53:50.796Z,85.20
2019-01-24T07:54:50.767Z,82.70
2019-01-24T07:55:50.751Z,85.50
2019-01-24T07:56:50.739Z,78.80
2019-01-24T07:57:50.743Z,81.70
2019-01-24T07:58:50.782Z,83.20
2019-01-24T07:59:50.754Z,90.70
2019-01-24T08:00:50.697Z,83.50
2019-01-24T08:01:50.696Z,82.90
2019-01-24T08:02:50.686Z,86.00
2019-01-24T08:03:50.663Z,82.30
2019-01-24T08:04:50.657Z,82.10
2019-01-24T08:05:50.724Z,84.70
2019-01-24T08:06:50.644Z,84.20
2019-01-24T08:07:50.651Z,89.70
2019-01-24T08:08:50.643Z,84.60
2019-01-24T08:09:50.633Z,89.20
2019-01-24T08:10:50.602Z,86.00
2019-01-24T08:11:50.638Z,83.20
2019-01-24T08:12:50.569Z,87.70
2019-01-24T08:13:50.575Z,92.00
2019-01-24T08:14:50.582Z,88.20
2019-01-24T08:15:50.567Z,87.20
2019-01-24T08:16:50.527Z,81.80
2019-01-24T08:17:50.516Z,88.10
2019-01-24T08:18:50.505Z,86.90
2019-01-24T08:19:50.527Z,86.70
2019-01-24T08:20:50.511Z,86.40
2019-01-24T08:21:50.513Z,82.60
2019-01-24T08:22:50.462Z,84.20
2019-01-24T08:23:50.452Z,85.00
2019-01-24T08:24:50.467Z,84.40
2019-01-24T08:25:50.450Z,81.80
2019-01-24T08:26:50.419Z,84.10
2019-01-24T08:27:50.430Z,81.10
2019-01-24T08:28:50.413Z,88.60
2019-01-24T08:29:50.390Z,83.30
2019-01-24T08:30:50.383Z,86.80
2019-01-24T08:31:50.383Z,82.40
2019-01-24T08:32:50.359Z,86.80
2019-01-24T08:33:50.347Z,85.90
2019-01-24T08:34:50.356Z,88.20
2019-01-24T08:35:50.322Z,86.00
2019-01-24T08:36:50.335Z,88.30
2019-01-24T08:37:50.301Z,90.80
2019-01-24T08:38:50.289Z,85.00
2019-01-24T08:39:50.298Z,80.60
2019-01-24T08:40:50.280Z,87.00
2019-01-24T08:41:50.270Z,85.70
2019-01-24T08:42:50.309Z,85.40
2019-01-24T08:43:50.239Z,88.40
2019-01-24T08:44:50.228Z,88.40
2019-01-24T08:45:50.215Z,88.20
2019-01-24T08:46:50.204Z,86.40
2019-01-24T08:47:50.197Z,85.70
2019-01-24T08:48:50.210Z,81.30
2019-01-24T08:49:50.186Z,87.80
2019-01-24T08:50:50.167Z,84.00
2019-01-24T08:51:50.154Z,84.80
2019-01-24T08:52:50.167Z,86.60
2019-01-24T08:53:50.143Z,81.80
2019-01-24T08:54:50.139Z,86.70
2019-01-24T08:55:50.144Z,80.70
2019-01-24T08:56:50.101Z,82.30
2019-01-24T08:57:50.088Z,81.60
2019-01-24T08:58:50.095Z,81.00
2019-01-24T08:59:50.066Z,83.50
2019-01-24T09:00:50.091Z,87.70
2019-01-24T09:01:50.052Z,85.40
2019-01-24T09:02:50.063Z,83.70
2019-01-24T09:03:50.025Z,81.50
2019-01-24T09:04:50.020Z,89.50
2019-01-24T09:05:50.017Z,84.30
2019-01-24T09:06:50.009Z,87.40
2019-01-24T09:07:49.984Z,92.40
2019-01-24T09:08:49.998Z,88.60
2019-01-24T09:09:49.960Z,86.60
2019-01-24T09:10:49.952Z,89.50
2019-01-24T09:11:49.979Z,83.90
2019-01-24T09:12:49.931Z,90.40
2019-01-24T09:13:49.917Z,95.60
2019-01-24T09:14:49.918Z,87.10
2019-01-24T09:15:49.899Z,94.00
2019-01-24T09:16:49.893Z,85.90
2019-01-24T09:17:49.888Z,90.20
2019-01-24T09:18:49.862Z,83.30
2019-01-24T09:19:49.855Z,83.20
2019-01-24T09:20:49.851Z,90.70
2019-01-24T09:21:49.854Z,84.90
2019-01-24T09:22:55.119Z,86.10
2019-01-24T09:23:50.825Z,83.60
2019-01-24T09:24:49.802Z,83.70
2019-01-24T09:25:49.788Z,87.90
2019-01-24T09:26:49.778Z,88.60
2019-01-24T09:27:49.816Z,89.10
2019-01-24T09:28:49.777Z,87.60
2019-01-24T09:29:49.772Z,85.40
2019-01-24T09:30:49.756Z,85.40
2019-01-24T09:31:49.728Z,90.30
2019-01-24T09:32:49.716Z,89.70
2019-01-24T09:33:49.710Z,82.20
2019-01-24T09:34:49.706Z,90.30
2019-01-24T09:35:49.732Z,92.70
2019-01-24T09:36:49.679Z,90.90
2019-01-24T09:37:49.680Z,90.70
2019-01-24T09:38:49.666Z,91.30
2019-01-24T09:39:49.666Z,93.30
2019-01-24T09:40:49.627Z,85.90
2019-01-24T09:41:49.628Z,86.20
2019-01-24T09:42:49.607Z,86.50
2019-01-24T09:43:49.597Z,85.50
2019-01-24T09:44:49.587Z,87.90
2019-01-24T09:45:49.597Z,80.80
2019-01-24T09:46:49.599Z,87.10
2019-01-24T09:47:49.557Z,82.50
2019-01-24T09:48:49.542Z,88.50
2019-01-24T09:49:49.532Z,90.70
2019-01-24T09:50:49.522Z,87.60
2019-01-24T09:51:49.536Z,88.50
2019-01-24T09:52:49.521Z,86.50
2019-01-24T09:53:49.509Z,82.50
2019-01-24T09:54:49.485Z,85.90
2019-01-24T09:55:49.482Z,83.50
2019-01-24T09:56:49.457Z,83.50
2019-01-24T09:57:49.486Z,81.10
2019-01-24T09:58:49.468Z,83.60
2019-01-24T09:59:49.426Z,81.80
2019-01-24T10:00:49.419Z,82.60
2019-01-24T10:01:49.406Z,81.10
2019-01-24T10:02:49.556Z,84.40
2019-01-24T10:03:49.407Z,84.80
2019-01-24T10:04:49.394Z,87.90
2019-01-24T10:05:49.360Z,86.10
2019-01-24T10:06:50.624Z,84.90
2019-01-24T10:07:49.339Z,84.90
2019-01-24T10:08:49.331Z,79.30
2019-01-24T10:09:49.329Z,83.70
2019-01-24T10:10:49.317Z,86.20
2019-01-24T10:11:49.296Z,81.40
2019-01-24T10:12:49.286Z,82.10
2019-01-24T10:13:49.280Z,85.00
2019-01-24T10:14:49.263Z,79.30
2019-01-24T10:15:49.280Z,89.00
2019-01-24T10:16:49.257Z,79.90
2019-01-24T10:17:49.234Z,85.20
2019-01-24T10:18:49.221Z,79.20
2019-01-24T10:19:49.239Z,80.70
2019-01-24T10:20:49.199Z,88.70
2019-01-24T10:21:49.206Z,88.50
2019-01-24T10:22:49.192Z,81.40
2019-01-24T10:23:49.170Z,83.20
2019-01-24T10:24:49.158Z,84.20
2019-01-24T10:25:49.169Z,83.00
2019-01-24T10:26:49.136Z,84.70
2019-01-24T10:27:49.171Z,87.90
2019-01-24T10:28:49.122Z,83.60
2019-01-24T10:29:49.104Z,83.10
2019-01-24T10:30:49.097Z,81.00
2019-01-24T10:31:49.084Z,78.60
2019-01-24T10:32:49.085Z,80.80
2019-01-24T10:33:49.098Z,86.10
2019-01-24T10:34:49.054Z,81.20
2019-01-24T10:35:49.042Z,79.50
2019-01-24T10:36:49.033Z,77.40
2019-01-24T10:37:49.052Z,82.30
2019-01-24T10:38:49.008Z,81.90
2019-01-24T10:39:49.023Z,87.50
2019-01-24T10:40:49.002Z,87.80
2019-01-24T10:41:48.980Z,86.20
2019-01-24T10:42:48.996Z,89.50
2019-01-24T10:43:48.955Z,86.70
2019-01-24T10:44:48.943Z,81.80
2019-01-24T10:45:48.951Z,86.10
2019-01-24T10:46:48.938Z,80.40
2019-01-24T10:47:48.914Z,86.40
2019-01-24T10:48:48.903Z,85.90
2019-01-24T10:49:48.892Z,92.40
2019-01-24T10:50:48.900Z,91.20
2019-01-24T10:51:48.938Z,84.60
2019-01-24T10:52:48.862Z,82.00
2019-01-24T10:53:48.847Z,85.70
2019-01-24T10:54:48.838Z,84.10
2019-01-24T10:55:48.826Z,83.10
2019-01-24T10:56:48.827Z,86.40
2019-01-24T10:57:48.814Z,81.60
2019-01-24T10:58:48.810Z,84.60
2019-01-24T10:59:48.783Z,86.30
2019-01-24T11:00:48.788Z,84.20
2019-01-24T11:01:48.763Z,85.00
2019-01-24T11:02:57.380Z,87.10
2019-01-24T11:03:56.304Z,82.90
2019-01-24T11:04:48.735Z,89.80
2019-01-24T11:05:48.727Z,88.50
2019-01-24T11:06:56.307Z,84.90
2019-01-24T11:07:56.290Z,84.70
2019-01-24T11:08:57.483Z,88.00
2019-01-24T11:09:48.702Z,86.40
2019-01-24T11:10:48.695Z,92.00
2019-01-24T11:11:48.666Z,87.20
2019-01-24T11:12:48.657Z,87.50
2019-01-24T11:13:48.657Z,87.40
2019-01-24T11:14:48.678Z,83.40
2019-01-24T11:15:48.659Z,88.70
2019-01-24T11:16:48.627Z,88.10
2019-01-24T11:17:48.657Z,90.10
2019-01-24T11:18:48.606Z,87.20
2019-01-24T11:19:48.573Z,88.50
2019-01-24T11:20:48.627Z,90.10
2019-01-24T11:21:48.548Z,90.60
2019-01-24T11:22:48.541Z,90.20
2019-01-24T11:23:48.536Z,88.70
2019-01-24T11:24:48.542Z,85.80
2019-01-24T11:25:48.507Z,90.90
2019-01-24T11:26:48.520Z,88.20
2019-01-24T11:27:48.485Z,91.30
2019-01-24T11:28:48.475Z,87.30
2019-01-24T11:29:48.472Z,91.50
2019-01-24T11:30:48.462Z,92.80
2019-01-24T11:31:48.462Z,88.00
2019-01-24T11:32:48.446Z,91.20
2019-01-24T11:33:48.463Z,86.80
2019-01-24T11:34:48.425Z,89.60
2019-01-24T11:35:48.445Z,90.60
2019-01-24T11:36:48.448Z,92.80
2019-01-24T11:37:48.412Z,91.20
2019-01-24T11:38:48.395Z,87.80
2019-01-24T11:39:48.378Z,86.40
2019-01-24T11:40:48.361Z,85.80
2019-01-24T11:41:48.338Z,88.00
2019-01-24T11:42:48.378Z,93.60
2019-01-24T11:43:48.370Z,91.00
2019-01-24T11:44:48.360Z,88.20
2019-01-24T11:45:48.327Z,88.80
2019-01-24T11:46:48.292Z,90.00
2019-01-24T11:47:48.278Z,91.90
2019-01-24T11:48:48.269Z,86.80
2019-01-24T11:49:48.269Z,92.80
2019-01-24T11:50:48.263Z,86.90
2019-01-24T11:51:48.256Z,94.00
2019-01-24T11:52:48.221Z,89.60
2019-01-24T11:53:53.064Z,88.00
2019-01-24T11:54:49.204Z,91.40
2019-01-24T11:55:48.242Z,94.70
2019-01-24T11:56:48.201Z,89.20
2019-01-24T11:57:48.174Z,97.60
2019-01-24T11:58:48.166Z,88.90
2019-01-24T11:59:48.167Z,91.50
2019-01-24T12:00:48.135Z,92.30
2019-01-24T12:01:48.142Z,93.70
2019-01-24T12:02:48.119Z,93.40
2019-01-24T12:03:48.115Z,92.80
2019-01-24T12:04:48.095Z,92.40
2019-01-24T12:05:48.097Z,89.40
2019-01-24T12:06:48.088Z,96.70
2019-01-24T12:07:48.101Z,93.20
2019-01-24T12:08:48.051Z,91.90
2019-01-24T12:09:48.050Z,89.50
2019-01-24T12:10:48.052Z,94.10
2019-01-24T12:11:48.044Z,92.70
2019-01-24T12:12:48.023Z,99.70
2019-01-24T12:13:48.009Z,96.70
2019-01-24T12:14:47.999Z,90.10
2019-01-24T12:15:47.985Z,93.30
2019-01-24T12:16:47.970Z,87.40
2019-01-24T12:17:48.003Z,90.60
2019-01-24T12:18:47.993Z,90.40
2019-01-24T12:19:47.985Z,95.10
2019-01-24T12:20:47.945Z,86.40
2019-01-24T12:21:47.936Z,91.20
2019-01-24T12:22:47.899Z,96.00
2019-01-24T12:23:47.914Z,88.80
2019-01-24T12:24:47.880Z,89.00
2019-01-24T12:25:47.884Z,96.20
2019-01-24T12:26:47.861Z,95.30
2019-01-24T12:27:47.851Z,91.50
2019-01-24T12:28:47.850Z,95.20
2019-01-24T12:29:47.854Z,97.10
2019-01-24T12:30:47.872Z,99.00
2019-01-24T12:31:47.870Z,93.90
2019-01-24T12:32:47.856Z,98.60
2019-01-24T12:33:47.796Z,93.50
2019-01-24T12:34:47.796Z,88.10
2019-01-24T12:35:47.804Z,89.20
2019-01-24T12:36:47.800Z,94.50
2019-01-24T12:37:47.741Z,91.20
2019-01-24T12:38:47.730Z,94.40
2019-01-24T12:39:47.732Z,96.00
2019-01-24T12:40:56.450Z,92.50
2019-01-24T12:43:01.493Z,93.90
2019-01-24T12:44:01.526Z,95.10
2019-01-24T12:45:09.079Z,97.20
2019-01-24T12:46:10.048Z,95.10
2019-01-24T12:47:01.470Z,93.20
2019-01-24T12:48:09.004Z,96.30
2019-01-24T12:49:08.968Z,89.50
2019-01-24T12:50:01.515Z,93.80
2019-01-24T12:51:08.951Z,88.50
2019-01-24T12:52:01.426Z,89.50
2019-01-24T12:53:10.128Z,86.50
2019-01-24T12:54:08.908Z,91.00
2019-01-24T12:55:08.899Z,92.80